HKMO/MBA METAR and TAF weather

Enter ICAO airport designator
Station Type Date Time Source
HKMO METAR 2018/12/12 20:00 UTC NOAA

HKMO 122000Z 00000KT 9999 BKN021 26/25 Q1014 NOSIG


Station Type Date Time Source
HKMO Decoded METAR 2018/12/12 20:00 UTC NOAA

Mombasa, Kenya (HKMO) 04-02S 039-37E 55M
Dec 12, 2018 - 03:00 PM EST / 2018.12.12 2000 UTC
Wind: Calm:0
Visibility: greater than 7 mile(s):0
Sky conditions: mostly cloudy
Temperature: 78 F (26 C)
Dew Point: 77 F (25 C)
Relative Humidity: 94%
Pressure (altimeter): 29.94 in. Hg (1014 hPa)
ob: HKMO 122000Z 00000KT 9999 BKN021 26/25 Q1014 NOSIG
cycle: 20

Station Type Date Time Source
HKMO TAF 2018/12/12 12:59 UTC NOAA

TAF HKMO 121100Z 1212/1318 00000KT 9000 -RA FEW020CB BKN024 BKN080
BECMG 1218/1221 10010KT SCT022
TEMPO 1300/1306 00000KT -SHRA FEW018 BKN080
BECMG 1309/1312 08010KT FEW024 SCT080
BECMG 1215/1218 0910KT SCT023


Example: see airport list